<?xml version="1.0" encoding="UTF-8"?>
<gpx xmlns="http://www.topografix.com/GPX/1/1" xmlns:xsi="http://www.w3.org/2001/XMLSchema-instance" version="1.1" xsi:schemaLocation="http://www.topografix.com/GPX/1/1 http://www.topografix.com/GPX/1/1/gpx.xsd">
  <metadata>
    <name>Miami Man - Sprint Aquabike</name>
  </metadata>
  <trk>
    <name>Miami Man - Sprint Aquabike</name>
    <trkseg>
      <trkpt lat="25.598679" lon="-80.402032">
        <ele>2.513413</ele>
        <time>2024-11-17T06:50:00.000Z</time>
      </trkpt>
      <trkpt lat="25.59864" lon="-80.402809">
        <ele>2.513402</ele>
        <time>2024-11-17T06:50:08.000Z</time>
      </trkpt>
      <trkpt lat="25.598648" lon="-80.40351">
        <ele>2.578156</ele>
        <time>2024-11-17T06:50:15.000Z</time>
      </trkpt>
      <trkpt lat="25.598742" lon="-80.403996">
        <ele>2.646676</ele>
        <time>2024-11-17T06:50:20.000Z</time>
      </trkpt>
      <trkpt lat="25.598924" lon="-80.404535">
        <ele>2.723635</ele>
        <time>2024-11-17T06:50:26.000Z</time>
      </trkpt>
      <trkpt lat="25.5992" lon="-80.405096">
        <ele>2.822599</ele>
        <time>2024-11-17T06:50:32.000Z</time>
      </trkpt>
      <trkpt lat="25.599396" lon="-80.405405">
        <ele>2.89026</ele>
        <time>2024-11-17T06:50:36.000Z</time>
      </trkpt>
      <trkpt lat="25.599639" lon="-80.405694">
        <ele>2.962089</ele>
        <time>2024-11-17T06:50:40.000Z</time>
      </trkpt>
      <trkpt lat="25.59973" lon="-80.405792">
        <ele>2.988085</ele>
        <time>2024-11-17T06:50:41.000Z</time>
      </trkpt>
      <trkpt lat="25.599975" lon="-80.405998">
        <ele>3.050804</ele>
        <time>2024-11-17T06:50:44.000Z</time>
      </trkpt>
      <trkpt lat="25.600329" lon="-80.406252">
        <ele>3.138608</ele>
        <time>2024-11-17T06:50:49.000Z</time>
      </trkpt>
      <trkpt lat="25.600363" lon="-80.406266">
        <ele>3.14478</ele>
        <time>2024-11-17T06:50:49.000Z</time>
      </trkpt>
      <trkpt lat="25.60121" lon="-80.406809">
        <ele>3.204745</ele>
        <time>2024-11-17T06:51:00.000Z</time>
      </trkpt>
      <trkpt lat="25.601439" lon="-80.40695">
        <ele>3.219315</ele>
        <time>2024-11-17T06:51:03.000Z</time>
      </trkpt>
      <trkpt lat="25.602404" lon="-80.407546">
        <ele>3.250036</ele>
        <time>2024-11-17T06:51:15.000Z</time>
      </trkpt>
      <trkpt lat="25.602439" lon="-80.407621">
        <ele>3.249695</ele>
        <time>2024-11-17T06:51:16.000Z</time>
      </trkpt>
      <trkpt lat="25.602592" lon="-80.407925">
        <ele>3.248542</ele>
        <time>2024-11-17T06:51:19.000Z</time>
      </trkpt>
      <trkpt lat="25.602639" lon="-80.40824">
        <ele>3.247463</ele>
        <time>2024-11-17T06:51:22.000Z</time>
      </trkpt>
      <trkpt lat="25.602607" lon="-80.408448">
        <ele>3.246718</ele>
        <time>2024-11-17T06:51:24.000Z</time>
      </trkpt>
      <trkpt lat="25.602564" lon="-80.408617">
        <ele>3.246077</ele>
        <time>2024-11-17T06:51:26.000Z</time>
      </trkpt>
      <trkpt lat="25.602541" lon="-80.408669">
        <ele>3.245915</ele>
        <time>2024-11-17T06:51:27.000Z</time>
      </trkpt>
      <trkpt lat="25.602442" lon="-80.40896">
        <ele>3.243081</ele>
        <time>2024-11-17T06:51:30.000Z</time>
      </trkpt>
      <trkpt lat="25.602393" lon="-80.409295">
        <ele>3.23567</ele>
        <time>2024-11-17T06:51:33.000Z</time>
      </trkpt>
      <trkpt lat="25.60235" lon="-80.409539">
        <ele>3.230066</ele>
        <time>2024-11-17T06:51:35.000Z</time>
      </trkpt>
      <trkpt lat="25.602353" lon="-80.409639">
        <ele>3.227957</ele>
        <time>2024-11-17T06:51:36.000Z</time>
      </trkpt>
      <trkpt lat="25.602023" lon="-80.409636">
        <ele>3.21971</ele>
        <time>2024-11-17T06:51:40.000Z</time>
      </trkpt>
      <trkpt lat="25.598941" lon="-80.409441">
        <ele>2.853678</ele>
        <time>2024-11-17T06:52:14.000Z</time>
      </trkpt>
      <trkpt lat="25.597736" lon="-80.409354">
        <ele>2.60486</ele>
        <time>2024-11-17T06:52:27.000Z</time>
      </trkpt>
      <trkpt lat="25.597371" lon="-80.409327">
        <ele>2.537397</ele>
        <time>2024-11-17T06:52:31.000Z</time>
      </trkpt>
      <trkpt lat="25.597243" lon="-80.409322">
        <ele>2.514463</ele>
        <time>2024-11-17T06:52:32.000Z</time>
      </trkpt>
      <trkpt lat="25.596808" lon="-80.409305">
        <ele>2.440577</ele>
        <time>2024-11-17T06:52:37.000Z</time>
      </trkpt>
      <trkpt lat="25.5967" lon="-80.409306">
        <ele>2.420614</ele>
        <time>2024-11-17T06:52:38.000Z</time>
      </trkpt>
      <trkpt lat="25.596695" lon="-80.409424">
        <ele>2.401189</ele>
        <time>2024-11-17T06:52:39.000Z</time>
      </trkpt>
      <trkpt lat="25.596688" lon="-80.409656">
        <ele>2.364396</ele>
        <time>2024-11-17T06:52:41.000Z</time>
      </trkpt>
      <trkpt lat="25.596672" lon="-80.410216">
        <ele>2.276622</ele>
        <time>2024-11-17T06:52:47.000Z</time>
      </trkpt>
      <trkpt lat="25.596654" lon="-80.41082">
        <ele>2.144171</ele>
        <time>2024-11-17T06:52:53.000Z</time>
      </trkpt>
      <trkpt lat="25.596625" lon="-80.411576">
        <ele>1.983515</ele>
        <time>2024-11-17T06:53:01.000Z</time>
      </trkpt>
      <trkpt lat="25.596584" lon="-80.412846">
        <ele>1.686868</ele>
        <time>2024-11-17T06:53:14.000Z</time>
      </trkpt>
      <trkpt lat="25.596588" lon="-80.412896">
        <ele>1.670585</ele>
        <time>2024-11-17T06:53:15.000Z</time>
      </trkpt>
      <trkpt lat="25.596572" lon="-80.413184">
        <ele>1.602446</ele>
        <time>2024-11-17T06:53:18.000Z</time>
      </trkpt>
      <trkpt lat="25.596573" lon="-80.413261">
        <ele>1.58114</ele>
        <time>2024-11-17T06:53:19.000Z</time>
      </trkpt>
      <trkpt lat="25.596567" lon="-80.413363">
        <ele>1.557352</ele>
        <time>2024-11-17T06:53:20.000Z</time>
      </trkpt>
      <trkpt lat="25.596559" lon="-80.413533">
        <ele>1.51225</ele>
        <time>2024-11-17T06:53:22.000Z</time>
      </trkpt>
      <trkpt lat="25.596462" lon="-80.413525">
        <ele>1.48302</ele>
        <time>2024-11-17T06:53:23.000Z</time>
      </trkpt>
      <trkpt lat="25.595836" lon="-80.413505">
        <ele>1.352166</ele>
        <time>2024-11-17T06:53:30.000Z</time>
      </trkpt>
      <trkpt lat="25.59521" lon="-80.413404">
        <ele>1.383638</ele>
        <time>2024-11-17T06:53:37.000Z</time>
      </trkpt>
      <trkpt lat="25.592135" lon="-80.413342">
        <ele>1.746443</ele>
        <time>2024-11-17T06:54:11.000Z</time>
      </trkpt>
      <trkpt lat="25.591868" lon="-80.413331">
        <ele>1.812535</ele>
        <time>2024-11-17T06:54:14.000Z</time>
      </trkpt>
      <trkpt lat="25.591767" lon="-80.413331">
        <ele>1.841244</ele>
        <time>2024-11-17T06:54:15.000Z</time>
      </trkpt>
      <trkpt lat="25.59136" lon="-80.413324">
        <ele>1.938259</ele>
        <time>2024-11-17T06:54:20.000Z</time>
      </trkpt>
      <trkpt lat="25.591073" lon="-80.413321">
        <ele>2.013015</ele>
        <time>2024-11-17T06:54:23.000Z</time>
      </trkpt>
      <trkpt lat="25.59087" lon="-80.413314">
        <ele>2.060772</ele>
        <time>2024-11-17T06:54:25.000Z</time>
      </trkpt>
      <trkpt lat="25.587951" lon="-80.413271">
        <ele>2.979236</ele>
        <time>2024-11-17T06:54:57.000Z</time>
      </trkpt>
      <trkpt lat="25.586055" lon="-80.41329">
        <ele>3.252398</ele>
        <time>2024-11-17T06:55:18.000Z</time>
      </trkpt>
      <trkpt lat="25.584334" lon="-80.413293">
        <ele>3.41674</ele>
        <time>2024-11-17T06:55:37.000Z</time>
      </trkpt>
      <trkpt lat="25.581251" lon="-80.413276">
        <ele>4.004993</ele>
        <time>2024-11-17T06:56:11.000Z</time>
      </trkpt>
      <trkpt lat="25.580722" lon="-80.413254">
        <ele>4.000938</ele>
        <time>2024-11-17T06:56:17.000Z</time>
      </trkpt>
      <trkpt lat="25.580678" lon="-80.417395">
        <ele>3.812183</ele>
        <time>2024-11-17T06:56:59.000Z</time>
      </trkpt>
      <trkpt lat="25.580664" lon="-80.419382">
        <ele>3.488433</ele>
        <time>2024-11-17T06:57:19.000Z</time>
      </trkpt>
      <trkpt lat="25.580653" lon="-80.42065">
        <ele>3.330883</ele>
        <time>2024-11-17T06:57:32.000Z</time>
      </trkpt>
      <trkpt lat="25.580645" lon="-80.421351">
        <ele>3.317311</ele>
        <time>2024-11-17T06:57:39.000Z</time>
      </trkpt>
      <trkpt lat="25.580624" lon="-80.422709">
        <ele>3.299997</ele>
        <time>2024-11-17T06:57:53.000Z</time>
      </trkpt>
      <trkpt lat="25.580631" lon="-80.42363">
        <ele>3.299993</ele>
        <time>2024-11-17T06:58:02.000Z</time>
      </trkpt>
      <trkpt lat="25.580617" lon="-80.425487">
        <ele>3.3</ele>
        <time>2024-11-17T06:58:21.000Z</time>
      </trkpt>
      <trkpt lat="25.580608" lon="-80.425606">
        <ele>3.299993</ele>
        <time>2024-11-17T06:58:22.000Z</time>
      </trkpt>
      <trkpt lat="25.5806" lon="-80.425934">
        <ele>3.299993</ele>
        <time>2024-11-17T06:58:25.000Z</time>
      </trkpt>
      <trkpt lat="25.580608" lon="-80.426591">
        <ele>3.299992</ele>
        <time>2024-11-17T06:58:32.000Z</time>
      </trkpt>
      <trkpt lat="25.580594" lon="-80.42683">
        <ele>3.299997</ele>
        <time>2024-11-17T06:58:34.000Z</time>
      </trkpt>
      <trkpt lat="25.580583" lon="-80.427072">
        <ele>3.299997</ele>
        <time>2024-11-17T06:58:36.000Z</time>
      </trkpt>
      <trkpt lat="25.580543" lon="-80.429521">
        <ele>3.261991</ele>
        <time>2024-11-17T06:59:01.000Z</time>
      </trkpt>
      <trkpt lat="25.580544" lon="-80.430589">
        <ele>3.233723</ele>
        <time>2024-11-17T06:59:12.000Z</time>
      </trkpt>
      <trkpt lat="25.580523" lon="-80.433555">
        <ele>3.222517</ele>
        <time>2024-11-17T06:59:42.000Z</time>
      </trkpt>
      <trkpt lat="25.580503" lon="-80.434503">
        <ele>3.189831</ele>
        <time>2024-11-17T06:59:52.000Z</time>
      </trkpt>
      <trkpt lat="25.580494" lon="-80.436492">
        <ele>2.841852</ele>
        <time>2024-11-17T07:00:12.000Z</time>
      </trkpt>
      <trkpt lat="25.580493" lon="-80.43671">
        <ele>2.770641</ele>
        <time>2024-11-17T07:00:14.000Z</time>
      </trkpt>
      <trkpt lat="25.580493" lon="-80.436989">
        <ele>2.676627</ele>
        <time>2024-11-17T07:00:17.000Z</time>
      </trkpt>
      <trkpt lat="25.580497" lon="-80.437731">
        <ele>2.442384</ele>
        <time>2024-11-17T07:00:24.000Z</time>
      </trkpt>
      <trkpt lat="25.580473" lon="-80.438824">
        <ele>2.271035</ele>
        <time>2024-11-17T07:00:35.000Z</time>
      </trkpt>
      <trkpt lat="25.58048" lon="-80.43897">
        <ele>2.267316</ele>
        <time>2024-11-17T07:00:36.000Z</time>
      </trkpt>
      <trkpt lat="25.580467" lon="-80.43912">
        <ele>2.263779</ele>
        <time>2024-11-17T07:00:38.000Z</time>
      </trkpt>
      <trkpt lat="25.580464" lon="-80.439472">
        <ele>2.254776</ele>
        <time>2024-11-17T07:00:42.000Z</time>
      </trkpt>
      <trkpt lat="25.580458" lon="-80.439747">
        <ele>2.247759</ele>
        <time>2024-11-17T07:00:45.000Z</time>
      </trkpt>
      <trkpt lat="25.580465" lon="-80.441709">
        <ele>2.638065</ele>
        <time>2024-11-17T07:01:05.000Z</time>
      </trkpt>
      <trkpt lat="25.580438" lon="-80.442889">
        <ele>2.919156</ele>
        <time>2024-11-17T07:01:17.000Z</time>
      </trkpt>
      <trkpt lat="25.580426" lon="-80.443746">
        <ele>3.10762</ele>
        <time>2024-11-17T07:01:26.000Z</time>
      </trkpt>
      <trkpt lat="25.580412" lon="-80.443878">
        <ele>3.136743</ele>
        <time>2024-11-17T07:01:27.000Z</time>
      </trkpt>
      <trkpt lat="25.580401" lon="-80.445827">
        <ele>3.278682</ele>
        <time>2024-11-17T07:01:47.000Z</time>
      </trkpt>
      <trkpt lat="25.580378" lon="-80.447829">
        <ele>3.270165</ele>
        <time>2024-11-17T07:02:07.000Z</time>
      </trkpt>
      <trkpt lat="25.580391" lon="-80.447846">
        <ele>3.270006</ele>
        <time>2024-11-17T07:02:07.000Z</time>
      </trkpt>
      <trkpt lat="25.580352" lon="-80.449118">
        <ele>3.220868</ele>
        <time>2024-11-17T07:02:20.000Z</time>
      </trkpt>
      <trkpt lat="25.580359" lon="-80.449379">
        <ele>3.209134</ele>
        <time>2024-11-17T07:02:23.000Z</time>
      </trkpt>
      <trkpt lat="25.580346" lon="-80.449914">
        <ele>3.183284</ele>
        <time>2024-11-17T07:02:28.000Z</time>
      </trkpt>
      <trkpt lat="25.58031" lon="-80.451294">
        <ele>3.138734</ele>
        <time>2024-11-17T07:02:42.000Z</time>
      </trkpt>
      <trkpt lat="25.580305" lon="-80.452467">
        <ele>3.120651</ele>
        <time>2024-11-17T07:02:54.000Z</time>
      </trkpt>
      <trkpt lat="25.580291" lon="-80.453444">
        <ele>3.146744</ele>
        <time>2024-11-17T07:03:04.000Z</time>
      </trkpt>
      <trkpt lat="25.58028" lon="-80.453939">
        <ele>3.159738</ele>
        <time>2024-11-17T07:03:09.000Z</time>
      </trkpt>
      <trkpt lat="25.580241" lon="-80.455102">
        <ele>3.172693</ele>
        <time>2024-11-17T07:03:21.000Z</time>
      </trkpt>
      <trkpt lat="25.580231" lon="-80.456005">
        <ele>3.179337</ele>
        <time>2024-11-17T07:03:30.000Z</time>
      </trkpt>
      <trkpt lat="25.580205" lon="-80.457661">
        <ele>3.195151</ele>
        <time>2024-11-17T07:03:47.000Z</time>
      </trkpt>
      <trkpt lat="25.580181" lon="-80.458797">
        <ele>3.194967</ele>
        <time>2024-11-17T07:03:58.000Z</time>
      </trkpt>
      <trkpt lat="25.580184" lon="-80.458994">
        <ele>3.193481</ele>
        <time>2024-11-17T07:04:00.000Z</time>
      </trkpt>
      <trkpt lat="25.580161" lon="-80.460029">
        <ele>3.185476</ele>
        <time>2024-11-17T07:04:10.000Z</time>
      </trkpt>
      <trkpt lat="25.58009" lon="-80.462022">
        <ele>3.059698</ele>
        <time>2024-11-17T07:04:30.000Z</time>
      </trkpt>
      <trkpt lat="25.578648" lon="-80.462005">
        <ele>2.801846</ele>
        <time>2024-11-17T07:04:46.000Z</time>
      </trkpt>
      <trkpt lat="25.576492" lon="-80.461955">
        <ele>2.427091</ele>
        <time>2024-11-17T07:05:10.000Z</time>
      </trkpt>
      <trkpt lat="25.575252" lon="-80.461955">
        <ele>2.460822</ele>
        <time>2024-11-17T07:05:24.000Z</time>
      </trkpt>
      <trkpt lat="25.574708" lon="-80.461941">
        <ele>2.484366</ele>
        <time>2024-11-17T07:05:30.000Z</time>
      </trkpt>
      <trkpt lat="25.573764" lon="-80.461949">
        <ele>2.76323</ele>
        <time>2024-11-17T07:05:40.000Z</time>
      </trkpt>
      <trkpt lat="25.572832" lon="-80.461939">
        <ele>3.062667</ele>
        <time>2024-11-17T07:05:50.000Z</time>
      </trkpt>
      <trkpt lat="25.57259" lon="-80.461952">
        <ele>3.079376</ele>
        <time>2024-11-17T07:05:53.000Z</time>
      </trkpt>
      <trkpt lat="25.569908" lon="-80.461915">
        <ele>3.116067</ele>
        <time>2024-11-17T07:06:23.000Z</time>
      </trkpt>
      <trkpt lat="25.569451" lon="-80.461911">
        <ele>3.106051</ele>
        <time>2024-11-17T07:06:28.000Z</time>
      </trkpt>
      <trkpt lat="25.569157" lon="-80.461904">
        <ele>3.100424</ele>
        <time>2024-11-17T07:06:31.000Z</time>
      </trkpt>
      <trkpt lat="25.565501" lon="-80.461879">
        <ele>3.100006</ele>
        <time>2024-11-17T07:07:12.000Z</time>
      </trkpt>
      <trkpt lat="25.565512" lon="-80.4608">
        <ele>3.100002</ele>
        <time>2024-11-17T07:07:23.000Z</time>
      </trkpt>
      <trkpt lat="25.565539" lon="-80.4598">
        <ele>3.101592</ele>
        <time>2024-11-17T07:07:33.000Z</time>
      </trkpt>
      <trkpt lat="25.565547" lon="-80.459328">
        <ele>3.105123</ele>
        <time>2024-11-17T07:07:38.000Z</time>
      </trkpt>
      <trkpt lat="25.565546" lon="-80.458363">
        <ele>3.112289</ele>
        <time>2024-11-17T07:07:48.000Z</time>
      </trkpt>
      <trkpt lat="25.565568" lon="-80.457833">
        <ele>3.122768</ele>
        <time>2024-11-17T07:07:53.000Z</time>
      </trkpt>
      <trkpt lat="25.565571" lon="-80.45779">
        <ele>3.124488</ele>
        <time>2024-11-17T07:07:53.000Z</time>
      </trkpt>
      <trkpt lat="25.565566" lon="-80.456799">
        <ele>3.166314</ele>
        <time>2024-11-17T07:08:03.000Z</time>
      </trkpt>
      <trkpt lat="25.565583" lon="-80.456528">
        <ele>3.177831</ele>
        <time>2024-11-17T07:08:06.000Z</time>
      </trkpt>
      <trkpt lat="25.565574" lon="-80.455812">
        <ele>3.193924</ele>
        <time>2024-11-17T07:08:13.000Z</time>
      </trkpt>
      <trkpt lat="25.565582" lon="-80.455665">
        <ele>3.19071</ele>
        <time>2024-11-17T07:08:14.000Z</time>
      </trkpt>
      <trkpt lat="25.565605" lon="-80.454372">
        <ele>3.161647</ele>
        <time>2024-11-17T07:08:27.000Z</time>
      </trkpt>
      <trkpt lat="25.565596" lon="-80.45418">
        <ele>3.157432</ele>
        <time>2024-11-17T07:08:29.000Z</time>
      </trkpt>
      <trkpt lat="25.565613" lon="-80.453722">
        <ele>3.145456</ele>
        <time>2024-11-17T07:08:34.000Z</time>
      </trkpt>
      <trkpt lat="25.566512" lon="-80.453732">
        <ele>3.118143</ele>
        <time>2024-11-17T07:08:44.000Z</time>
      </trkpt>
      <trkpt lat="25.56789" lon="-80.45375">
        <ele>3.099999</ele>
        <time>2024-11-17T07:08:59.000Z</time>
      </trkpt>
      <trkpt lat="25.568716" lon="-80.453772">
        <ele>3.099991</ele>
        <time>2024-11-17T07:09:08.000Z</time>
      </trkpt>
      <trkpt lat="25.569239" lon="-80.453776">
        <ele>3.106293</ele>
        <time>2024-11-17T07:09:14.000Z</time>
      </trkpt>
      <trkpt lat="25.569766" lon="-80.453794">
        <ele>3.116762</ele>
        <time>2024-11-17T07:09:20.000Z</time>
      </trkpt>
      <trkpt lat="25.569963" lon="-80.453816">
        <ele>3.12088</ele>
        <time>2024-11-17T07:09:22.000Z</time>
      </trkpt>
      <trkpt lat="25.570767" lon="-80.453818">
        <ele>3.138789</ele>
        <time>2024-11-17T07:09:31.000Z</time>
      </trkpt>
      <trkpt lat="25.571187" lon="-80.45383">
        <ele>3.168407</ele>
        <time>2024-11-17T07:09:36.000Z</time>
      </trkpt>
      <trkpt lat="25.571601" lon="-80.453846">
        <ele>3.197912</ele>
        <time>2024-11-17T07:09:41.000Z</time>
      </trkpt>
      <trkpt lat="25.572523" lon="-80.453854">
        <ele>3.261402</ele>
        <time>2024-11-17T07:09:51.000Z</time>
      </trkpt>
      <trkpt lat="25.574156" lon="-80.453856">
        <ele>3.21199</ele>
        <time>2024-11-17T07:10:09.000Z</time>
      </trkpt>
      <trkpt lat="25.574777" lon="-80.453883">
        <ele>3.192553</ele>
        <time>2024-11-17T07:10:16.000Z</time>
      </trkpt>
      <trkpt lat="25.577408" lon="-80.453914">
        <ele>3.115088</ele>
        <time>2024-11-17T07:10:45.000Z</time>
      </trkpt>
      <trkpt lat="25.577623" lon="-80.453904">
        <ele>3.109194</ele>
        <time>2024-11-17T07:10:47.000Z</time>
      </trkpt>
      <trkpt lat="25.578775" lon="-80.453932">
        <ele>3.129927</ele>
        <time>2024-11-17T07:11:00.000Z</time>
      </trkpt>
      <trkpt lat="25.580277" lon="-80.453944">
        <ele>3.150866</ele>
        <time>2024-11-17T07:11:17.000Z</time>
      </trkpt>
      <trkpt lat="25.580287" lon="-80.45345">
        <ele>3.143635</ele>
        <time>2024-11-17T07:11:22.000Z</time>
      </trkpt>
      <trkpt lat="25.580298" lon="-80.452467">
        <ele>3.131859</ele>
        <time>2024-11-17T07:11:32.000Z</time>
      </trkpt>
      <trkpt lat="25.580327" lon="-80.451286">
        <ele>3.144125</ele>
        <time>2024-11-17T07:11:44.000Z</time>
      </trkpt>
      <trkpt lat="25.580343" lon="-80.449918">
        <ele>3.18218</ele>
        <time>2024-11-17T07:11:58.000Z</time>
      </trkpt>
      <trkpt lat="25.580353" lon="-80.449377">
        <ele>3.207955</ele>
        <time>2024-11-17T07:12:03.000Z</time>
      </trkpt>
      <trkpt lat="25.580361" lon="-80.449124">
        <ele>3.219669</ele>
        <time>2024-11-17T07:12:06.000Z</time>
      </trkpt>
      <trkpt lat="25.580386" lon="-80.447839">
        <ele>3.265142</ele>
        <time>2024-11-17T07:12:19.000Z</time>
      </trkpt>
      <trkpt lat="25.580377" lon="-80.447836">
        <ele>3.265405</ele>
        <time>2024-11-17T07:12:19.000Z</time>
      </trkpt>
      <trkpt lat="25.580387" lon="-80.445827">
        <ele>3.275435</ele>
        <time>2024-11-17T07:12:39.000Z</time>
      </trkpt>
      <trkpt lat="25.580424" lon="-80.443884">
        <ele>3.112983</ele>
        <time>2024-11-17T07:12:58.000Z</time>
      </trkpt>
      <trkpt lat="25.580421" lon="-80.443741">
        <ele>3.089691</ele>
        <time>2024-11-17T07:12:59.000Z</time>
      </trkpt>
      <trkpt lat="25.58043" lon="-80.442884">
        <ele>2.938963</ele>
        <time>2024-11-17T07:13:08.000Z</time>
      </trkpt>
      <trkpt lat="25.580451" lon="-80.441699">
        <ele>2.634776</ele>
        <time>2024-11-17T07:13:20.000Z</time>
      </trkpt>
      <trkpt lat="25.580468" lon="-80.439737">
        <ele>2.268995</ele>
        <time>2024-11-17T07:13:40.000Z</time>
      </trkpt>
      <trkpt lat="25.580475" lon="-80.439463">
        <ele>2.252525</ele>
        <time>2024-11-17T07:13:43.000Z</time>
      </trkpt>
      <trkpt lat="25.580467" lon="-80.439111">
        <ele>2.231355</ele>
        <time>2024-11-17T07:13:47.000Z</time>
      </trkpt>
      <trkpt lat="25.580476" lon="-80.438968">
        <ele>2.223086</ele>
        <time>2024-11-17T07:13:48.000Z</time>
      </trkpt>
      <trkpt lat="25.58048" lon="-80.438824">
        <ele>2.214359</ele>
        <time>2024-11-17T07:13:49.000Z</time>
      </trkpt>
      <trkpt lat="25.580496" lon="-80.437737">
        <ele>2.470424</ele>
        <time>2024-11-17T07:14:00.000Z</time>
      </trkpt>
      <trkpt lat="25.580496" lon="-80.436995">
        <ele>2.693169</ele>
        <time>2024-11-17T07:14:07.000Z</time>
      </trkpt>
      <trkpt lat="25.580489" lon="-80.436698">
        <ele>2.782558</ele>
        <time>2024-11-17T07:14:10.000Z</time>
      </trkpt>
      <trkpt lat="25.580477" lon="-80.436486">
        <ele>2.836923</ele>
        <time>2024-11-17T07:14:12.000Z</time>
      </trkpt>
      <trkpt lat="25.580503" lon="-80.434517">
        <ele>3.216166</ele>
        <time>2024-11-17T07:14:32.000Z</time>
      </trkpt>
      <trkpt lat="25.580521" lon="-80.433549">
        <ele>3.208002</ele>
        <time>2024-11-17T07:14:42.000Z</time>
      </trkpt>
      <trkpt lat="25.580548" lon="-80.430582">
        <ele>3.223187</ele>
        <time>2024-11-17T07:15:12.000Z</time>
      </trkpt>
      <trkpt lat="25.580541" lon="-80.429524">
        <ele>3.264878</ele>
        <time>2024-11-17T07:15:23.000Z</time>
      </trkpt>
      <trkpt lat="25.580597" lon="-80.427074">
        <ele>3.299943</ele>
        <time>2024-11-17T07:15:48.000Z</time>
      </trkpt>
      <trkpt lat="25.580592" lon="-80.426831">
        <ele>3.299979</ele>
        <time>2024-11-17T07:15:50.000Z</time>
      </trkpt>
      <trkpt lat="25.580594" lon="-80.426598">
        <ele>3.299996</ele>
        <time>2024-11-17T07:15:52.000Z</time>
      </trkpt>
      <trkpt lat="25.580602" lon="-80.425944">
        <ele>3.299997</ele>
        <time>2024-11-17T07:15:59.000Z</time>
      </trkpt>
      <trkpt lat="25.580604" lon="-80.425614">
        <ele>3.299998</ele>
        <time>2024-11-17T07:16:02.000Z</time>
      </trkpt>
      <trkpt lat="25.58061" lon="-80.42548">
        <ele>3.299997</ele>
        <time>2024-11-17T07:16:03.000Z</time>
      </trkpt>
      <trkpt lat="25.580631" lon="-80.422706">
        <ele>3.299993</ele>
        <time>2024-11-17T07:16:31.000Z</time>
      </trkpt>
      <trkpt lat="25.580643" lon="-80.421362">
        <ele>3.312415</ele>
        <time>2024-11-17T07:16:44.000Z</time>
      </trkpt>
      <trkpt lat="25.58065" lon="-80.420637">
        <ele>3.321742</ele>
        <time>2024-11-17T07:16:51.000Z</time>
      </trkpt>
      <trkpt lat="25.580658" lon="-80.419386">
        <ele>3.487897</ele>
        <time>2024-11-17T07:17:04.000Z</time>
      </trkpt>
      <trkpt lat="25.580687" lon="-80.417379">
        <ele>3.8383</ele>
        <time>2024-11-17T07:17:24.000Z</time>
      </trkpt>
      <trkpt lat="25.580682" lon="-80.416732">
        <ele>3.968985</ele>
        <time>2024-11-17T07:17:30.000Z</time>
      </trkpt>
      <trkpt lat="25.580711" lon="-80.413243">
        <ele>4.089922</ele>
        <time>2024-11-17T07:18:05.000Z</time>
      </trkpt>
      <trkpt lat="25.581255" lon="-80.413262">
        <ele>4.07223</ele>
        <time>2024-11-17T07:18:11.000Z</time>
      </trkpt>
      <trkpt lat="25.58432" lon="-80.413289">
        <ele>3.401892</ele>
        <time>2024-11-17T07:18:45.000Z</time>
      </trkpt>
      <trkpt lat="25.58607" lon="-80.413298">
        <ele>3.26041</ele>
        <time>2024-11-17T07:19:04.000Z</time>
      </trkpt>
      <trkpt lat="25.587953" lon="-80.41327">
        <ele>2.994896</ele>
        <time>2024-11-17T07:19:25.000Z</time>
      </trkpt>
      <trkpt lat="25.59087" lon="-80.413326">
        <ele>2.066453</ele>
        <time>2024-11-17T07:19:57.000Z</time>
      </trkpt>
      <trkpt lat="25.59107" lon="-80.413321">
        <ele>2.011756</ele>
        <time>2024-11-17T07:19:59.000Z</time>
      </trkpt>
      <trkpt lat="25.591372" lon="-80.413318">
        <ele>1.926164</ele>
        <time>2024-11-17T07:20:02.000Z</time>
      </trkpt>
      <trkpt lat="25.591765" lon="-80.413327">
        <ele>1.815088</ele>
        <time>2024-11-17T07:20:06.000Z</time>
      </trkpt>
      <trkpt lat="25.591871" lon="-80.413328">
        <ele>1.782209</ele>
        <time>2024-11-17T07:20:07.000Z</time>
      </trkpt>
      <trkpt lat="25.592144" lon="-80.413331">
        <ele>1.712501</ele>
        <time>2024-11-17T07:20:10.000Z</time>
      </trkpt>
      <trkpt lat="25.595208" lon="-80.413401">
        <ele>1.102874</ele>
        <time>2024-11-17T07:20:44.000Z</time>
      </trkpt>
      <trkpt lat="25.595675" lon="-80.413356">
        <ele>1.056685</ele>
        <time>2024-11-17T07:20:49.000Z</time>
      </trkpt>
      <trkpt lat="25.596469" lon="-80.413348">
        <ele>1.29133</ele>
        <time>2024-11-17T07:20:58.000Z</time>
      </trkpt>
      <trkpt lat="25.596561" lon="-80.413366">
        <ele>1.322363</ele>
        <time>2024-11-17T07:20:59.000Z</time>
      </trkpt>
      <trkpt lat="25.59658" lon="-80.413268">
        <ele>1.347709</ele>
        <time>2024-11-17T07:21:00.000Z</time>
      </trkpt>
      <trkpt lat="25.596565" lon="-80.413184">
        <ele>1.370372</ele>
        <time>2024-11-17T07:21:01.000Z</time>
      </trkpt>
      <trkpt lat="25.596579" lon="-80.412909">
        <ele>1.442929</ele>
        <time>2024-11-17T07:21:04.000Z</time>
      </trkpt>
      <trkpt lat="25.596593" lon="-80.412837">
        <ele>1.460254</ele>
        <time>2024-11-17T07:21:05.000Z</time>
      </trkpt>
      <trkpt lat="25.596636" lon="-80.411567">
        <ele>1.861104</ele>
        <time>2024-11-17T07:21:18.000Z</time>
      </trkpt>
      <trkpt lat="25.596648" lon="-80.410828">
        <ele>2.112868</ele>
        <time>2024-11-17T07:21:25.000Z</time>
      </trkpt>
      <trkpt lat="25.596667" lon="-80.410212">
        <ele>2.28044</ele>
        <time>2024-11-17T07:21:31.000Z</time>
      </trkpt>
      <trkpt lat="25.596682" lon="-80.409656">
        <ele>2.364692</ele>
        <time>2024-11-17T07:21:37.000Z</time>
      </trkpt>
      <trkpt lat="25.596701" lon="-80.409433">
        <ele>2.399993</ele>
        <time>2024-11-17T07:21:39.000Z</time>
      </trkpt>
      <trkpt lat="25.596696" lon="-80.409296">
        <ele>2.418639</ele>
        <time>2024-11-17T07:21:40.000Z</time>
      </trkpt>
      <trkpt lat="25.596818" lon="-80.409306">
        <ele>2.437805</ele>
        <time>2024-11-17T07:21:41.000Z</time>
      </trkpt>
      <trkpt lat="25.597242" lon="-80.409332">
        <ele>2.508726</ele>
        <time>2024-11-17T07:21:46.000Z</time>
      </trkpt>
      <trkpt lat="25.597361" lon="-80.409329">
        <ele>2.530735</ele>
        <time>2024-11-17T07:21:47.000Z</time>
      </trkpt>
      <trkpt lat="25.597739" lon="-80.40935">
        <ele>2.605132</ele>
        <time>2024-11-17T07:21:51.000Z</time>
      </trkpt>
      <trkpt lat="25.598934" lon="-80.409428">
        <ele>2.860802</ele>
        <time>2024-11-17T07:22:04.000Z</time>
      </trkpt>
      <trkpt lat="25.602027" lon="-80.409623">
        <ele>3.272392</ele>
        <time>2024-11-17T07:22:38.000Z</time>
      </trkpt>
      <trkpt lat="25.602365" lon="-80.409648">
        <ele>3.30624</ele>
        <time>2024-11-17T07:22:42.000Z</time>
      </trkpt>
      <trkpt lat="25.602357" lon="-80.409542">
        <ele>3.314861</ele>
        <time>2024-11-17T07:22:43.000Z</time>
      </trkpt>
      <trkpt lat="25.602324" lon="-80.4093">
        <ele>3.337949</ele>
        <time>2024-11-17T07:22:45.000Z</time>
      </trkpt>
      <trkpt lat="25.602304" lon="-80.409223">
        <ele>3.345002</ele>
        <time>2024-11-17T07:22:46.000Z</time>
      </trkpt>
      <trkpt lat="25.602415" lon="-80.408664">
        <ele>3.414908</ele>
        <time>2024-11-17T07:22:52.000Z</time>
      </trkpt>
      <trkpt lat="25.60243" lon="-80.408607">
        <ele>3.422911</ele>
        <time>2024-11-17T07:22:53.000Z</time>
      </trkpt>
      <trkpt lat="25.602516" lon="-80.408215">
        <ele>3.476015</ele>
        <time>2024-11-17T07:22:57.000Z</time>
      </trkpt>
      <trkpt lat="25.602492" lon="-80.40797">
        <ele>3.507051</ele>
        <time>2024-11-17T07:22:59.000Z</time>
      </trkpt>
      <trkpt lat="25.602396" lon="-80.407815">
        <ele>3.533373</ele>
        <time>2024-11-17T07:23:01.000Z</time>
      </trkpt>
      <trkpt lat="25.602298" lon="-80.407731">
        <ele>3.549159</ele>
        <time>2024-11-17T07:23:02.000Z</time>
      </trkpt>
      <trkpt lat="25.602006" lon="-80.407555">
        <ele>3.598466</ele>
        <time>2024-11-17T07:23:06.000Z</time>
      </trkpt>
      <trkpt lat="25.6018" lon="-80.407436">
        <ele>3.614933</ele>
        <time>2024-11-17T07:23:09.000Z</time>
      </trkpt>
      <trkpt lat="25.601409" lon="-80.407219">
        <ele>3.583222</ele>
        <time>2024-11-17T07:23:14.000Z</time>
      </trkpt>
      <trkpt lat="25.601105" lon="-80.407059">
        <ele>3.560204</ele>
        <time>2024-11-17T07:23:18.000Z</time>
      </trkpt>
      <trkpt lat="25.600491" lon="-80.406752">
        <ele>3.512254</ele>
        <time>2024-11-17T07:23:25.000Z</time>
      </trkpt>
      <trkpt lat="25.600198" lon="-80.406601">
        <ele>3.473304</ele>
        <time>2024-11-17T07:23:29.000Z</time>
      </trkpt>
      <trkpt lat="25.600069" lon="-80.406521">
        <ele>3.431055</ele>
        <time>2024-11-17T07:23:31.000Z</time>
      </trkpt>
      <trkpt lat="25.599825" lon="-80.406359">
        <ele>3.341148</ele>
        <time>2024-11-17T07:23:34.000Z</time>
      </trkpt>
      <trkpt lat="25.599451" lon="-80.406073">
        <ele>3.200082</ele>
        <time>2024-11-17T07:23:39.000Z</time>
      </trkpt>
      <trkpt lat="25.59933" lon="-80.405947">
        <ele>3.148576</ele>
        <time>2024-11-17T07:23:41.000Z</time>
      </trkpt>
      <trkpt lat="25.599282" lon="-80.405882">
        <ele>3.12652</ele>
        <time>2024-11-17T07:23:42.000Z</time>
      </trkpt>
      <trkpt lat="25.599003" lon="-80.405466">
        <ele>2.981649</ele>
        <time>2024-11-17T07:23:47.000Z</time>
      </trkpt>
      <trkpt lat="25.598871" lon="-80.40529">
        <ele>2.926011</ele>
        <time>2024-11-17T07:23:49.000Z</time>
      </trkpt>
      <trkpt lat="25.598756" lon="-80.404955">
        <ele>2.861648</ele>
        <time>2024-11-17T07:23:53.000Z</time>
      </trkpt>
      <trkpt lat="25.598617" lon="-80.404467">
        <ele>2.767012</ele>
        <time>2024-11-17T07:23:58.000Z</time>
      </trkpt>
      <trkpt lat="25.598564" lon="-80.404129">
        <ele>2.707517</ele>
        <time>2024-11-17T07:24:01.000Z</time>
      </trkpt>
      <trkpt lat="25.598554" lon="-80.403944">
        <ele>2.672826</ele>
        <time>2024-11-17T07:24:03.000Z</time>
      </trkpt>
      <trkpt lat="25.598572" lon="-80.403467">
        <ele>2.586385</ele>
        <time>2024-11-17T07:24:08.000Z</time>
      </trkpt>
      <trkpt lat="25.598592" lon="-80.402808">
        <ele>2.53183907704</ele>
        <time>2024-11-17T07:24:15.000Z</time>
      </trkpt>
      <trkpt lat="25.598617" lon="-80.402036">
        <ele>2.46793506404</ele>
        <time>2024-11-17T07:24:23.000Z</time>
      </trkpt>
    </trkseg>
  </trk>
</gpx>

<!--
Performance optimized by W3 Total Cache. Learn more: https://www.boldgrid.com/w3-total-cache/?utm_source=w3tc&utm_medium=footer_comment&utm_campaign=free_plugin

Page Caching using Disk: Enhanced{w3tc_pagecache_reject_reason} 

Served from: www.aquabike.world @ 2026-05-10 20:12:27 by W3 Total Cache
-->